Time;durP1;ratioP1;P1;durP2;ratioP2;P2;SDS_P1;SDS_P2;PMS_P1;PMS_P2;Temp;Humidity;BMP_temperature;BMP_pressure;BME280_temperature;BME280_humidity;BME280_pressure;Samples;Min_cycle;Max_cycle;Signal;HPM_P1;HPM_P2
2022/03/23 00:00:34;;;;;;;;;;;20.00;92.50;;;;;;5104896;28;19924;-59
2022/03/23 00:03:02;;;;;;;;;;;20.00;92.50;;;;;;5105496;28;19931;-60
2022/03/23 00:05:29;;;;;;;;;;;20.00;92.60;;;;;;5104929;28;19930;-58
2022/03/23 00:07:56;;;;;;;;;;;20.00;92.90;;;;;;5096756;28;19920;-59
2022/03/23 00:10:24;;;;;;;;;;;20.00;92.70;;;;;;5100208;28;19928;-61
2022/03/23 00:12:51;;;;;;;;;;;20.00;92.70;;;;;;5099230;28;19923;-60
2022/03/23 00:15:18;;;;;;;;;;;19.90;92.50;;;;;;5096263;28;19924;-61
2022/03/23 00:17:46;;;;;;;;;;;19.90;92.40;;;;;;5106150;28;19938;-58
2022/03/23 00:20:14;;;;;;;;;;;19.90;92.70;;;;;;5098509;28;19924;-59
2022/03/23 00:22:42;;;;;;;;;;;19.90;92.40;;;;;;5098917;28;19920;-59
2022/03/23 00:25:09;;;;;;;;;;;19.90;92.30;;;;;;5087315;28;19957;-60
2022/03/23 00:27:36;;;;;;;;;;;19.90;92.30;;;;;;5097338;28;19930;-61
2022/03/23 00:30:04;;;;;;;;;;;19.90;92.10;;;;;;5089844;28;19927;-61
2022/03/23 00:32:31;;;;;;;;;;;19.90;92.20;;;;;;5095323;28;19924;-59
2022/03/23 00:35:01;;;;;;;;;;;19.90;92.10;;;;;;5080292;28;19931;-59
2022/03/23 00:37:28;;;;;;;;;;;19.80;92.10;;;;;;5096219;28;20121;-60
2022/03/23 00:39:55;;;;;;;;;;;19.80;92.10;;;;;;5087391;28;19931;-60
2022/03/23 00:42:22;;;;;;;;;;;19.90;92.10;;;;;;5088912;28;20292;-60
2022/03/23 00:44:51;;;;;;;;;;;19.90;92.10;;;;;;5099009;28;19923;-60
2022/03/23 00:47:19;;;;;;;;;;;19.80;92.00;;;;;;5101102;28;19931;-60
2022/03/23 00:49:46;;;;;;;;;;;19.90;92.10;;;;;;5091551;28;19924;-57
2022/03/23 00:52:13;;;;;;;;;;;19.80;92.00;;;;;;5099241;28;19923;-60
2022/03/23 00:54:40;;;;;;;;;;;19.80;92.10;;;;;;5096983;28;19935;-60
2022/03/23 00:57:07;;;;;;;;;;;19.80;92.40;;;;;;5094976;28;19935;-59
2022/03/23 00:59:35;;;;;;;;;;;19.80;92.30;;;;;;5104683;28;19919;-60
2022/03/23 01:02:02;;;;;;;;;;;19.90;92.40;;;;;;5105054;28;20025;-58
2022/03/23 01:04:30;;;;;;;;;;;19.80;92.50;;;;;;5105968;28;19930;-60
2022/03/23 01:06:57;;;;;;;;;;;19.90;92.60;;;;;;5094858;28;20491;-60
2022/03/23 01:09:25;;;;;;;;;;;19.80;92.70;;;;;;5098942;28;19996;-61
2022/03/23 01:11:54;;;;;;;;;;;19.80;92.80;;;;;;5103052;28;19923;-61
2022/03/23 01:14:22;;;;;;;;;;;19.80;93.00;;;;;;5077382;28;19923;-57
2022/03/23 01:16:50;;;;;;;;;;;19.80;93.10;;;;;;5103196;28;19931;-60
2022/03/23 01:19:20;;;;;;;;;;;19.80;93.20;;;;;;5094157;28;19927;-59
2022/03/23 01:21:47;;;;;;;;;;;19.80;93.40;;;;;;5100359;28;19927;-59
2022/03/23 01:24:14;;;;;;;;;;;19.80;93.60;;;;;;5094608;28;19919;-59
2022/03/23 01:26:41;;;;;;;;;;;19.80;93.60;;;;;;5090589;28;20480;-58
2022/03/23 01:29:08;;;;;;;;;;;19.80;93.90;;;;;;5087551;28;19928;-59
2022/03/23 01:31:37;;;;;;;;;;;19.80;94.00;;;;;;5089756;28;19935;-57
2022/03/23 01:34:04;;;;;;;;;;;19.80;94.00;;;;;;5106643;28;19988;-58
2022/03/23 01:36:33;;;;;;;;;;;19.80;94.10;;;;;;5103696;28;20181;-60
2022/03/23 01:39:00;;;;;;;;;;;19.80;94.10;;;;;;5098631;28;19924;-59
2022/03/23 01:41:27;;;;;;;;;;;19.80;94.30;;;;;;5106985;28;19923;-59
2022/03/23 01:43:54;;;;;;;;;;;19.80;94.40;;;;;;5105226;28;19924;-60
2022/03/23 01:46:21;;;;;;;;;;;19.80;94.40;;;;;;5082584;28;19931;-59
2022/03/23 01:48:49;;;;;;;;;;;19.80;94.40;;;;;;5099815;28;19931;-59
2022/03/23 01:51:16;;;;;;;;;;;19.80;94.30;;;;;;5095208;28;20292;-59
2022/03/23 01:53:43;;;;;;;;;;;19.80;94.40;;;;;;5102287;28;19931;-58
2022/03/23 01:56:11;;;;;;;;;;;19.70;94.70;;;;;;5082408;28;19931;-63
2022/03/23 01:58:40;;;;;;;;;;;19.70;94.80;;;;;;5085542;28;19927;-61
2022/03/23 02:01:10;;;;;;;;;;;19.70;94.70;;;;;;5089991;28;20572;-58
2022/03/23 02:03:37;;;;;;;;;;;19.70;94.60;;;;;;5075878;28;19928;-59
2022/03/23 02:06:05;;;;;;;;;;;19.70;94.60;;;;;;5084617;28;20269;-57
2022/03/23 02:08:32;;;;;;;;;;;19.60;94.70;;;;;;5075637;28;19934;-60
2022/03/23 02:11:00;;;;;;;;;;;19.60;94.70;;;;;;5078886;28;19923;-57
2022/03/23 02:13:37;;;;;;;;;;;19.60;94.60;;;;;;5087062;28;19939;-58
2022/03/23 02:16:04;;;;;;;;;;;19.60;94.60;;;;;;5093782;28;19938;-61
2022/03/23 02:18:32;;;;;;;;;;;19.50;94.60;;;;;;5081341;28;19931;-57
2022/03/23 02:20:59;;;;;;;;;;;19.60;94.60;;;;;;5084842;28;19927;-58
2022/03/23 02:23:28;;;;;;;;;;;19.60;94.90;;;;;;5078112;28;20378;-57
2022/03/23 02:25:59;;;;;;;;;;;19.70;95.00;;;;;;5101796;28;19923;-58
2022/03/23 02:28:27;;;;;;;;;;;19.70;95.00;;;;;;5102479;28;19924;-58
2022/03/23 02:30:54;;;;;;;;;;;19.70;95.10;;;;;;5089351;28;20250;-59
2022/03/23 02:33:22;;;;;;;;;;;19.70;95.10;;;;;;5092785;28;19924;-57
2022/03/23 02:35:49;;;;;;;;;;;19.70;95.20;;;;;;5091807;28;19923;-59
2022/03/23 02:38:17;;;;;;;;;;;19.70;95.20;;;;;;5089004;28;21588;-60
2022/03/23 02:40:44;;;;;;;;;;;19.70;95.30;;;;;;5105143;28;19927;-59
2022/03/23 02:43:12;;;;;;;;;;;19.70;95.30;;;;;;5073404;28;20351;-59
2022/03/23 02:45:39;;;;;;;;;;;19.60;95.40;;;;;;5091073;28;19927;-60
2022/03/23 02:48:07;;;;;;;;;;;19.60;95.40;;;;;;5100840;28;19928;-59
2022/03/23 02:50:34;;;;;;;;;;;19.60;95.50;;;;;;5099027;28;19923;-59
2022/03/23 03:01:54;;;;;;;;;;;19.60;95.70;;;;;;5106447;28;19924;-58
2022/03/23 03:04:23;;;;;;;;;;;19.60;95.70;;;;;;5105905;28;19924;-58
2022/03/23 03:06:50;;;;;;;;;;;19.60;95.80;;;;;;5097439;28;19924;-58
2022/03/23 03:09:19;;;;;;;;;;;19.60;95.80;;;;;;5088494;28;19928;-59
2022/03/23 03:11:47;;;;;;;;;;;19.60;95.90;;;;;;5101451;28;19927;-59
2022/03/23 03:14:14;;;;;;;;;;;19.60;95.90;;;;;;5107051;28;20307;-59
2022/03/23 03:16:41;;;;;;;;;;;19.50;95.80;;;;;;5107986;28;20278;-60
2022/03/23 03:19:10;;;;;;;;;;;19.50;95.80;;;;;;5110476;28;19923;-60
2022/03/23 03:21:38;;;;;;;;;;;19.60;96.00;;;;;;5104568;28;20028;-58
2022/03/23 03:24:06;;;;;;;;;;;19.50;95.80;;;;;;5102945;28;19926;-59
2022/03/23 03:26:33;;;;;;;;;;;19.50;95.80;;;;;;5104515;28;19946;-58
2022/03/23 03:29:02;;;;;;;;;;;19.50;95.90;;;;;;5104203;28;19946;-60
2022/03/23 03:31:29;;;;;;;;;;;19.50;96.10;;;;;;5108016;28;19962;-59
2022/03/23 03:33:56;;;;;;;;;;;19.50;96.20;;;;;;5100232;28;20299;-60
2022/03/23 03:36:24;;;;;;;;;;;19.50;96.00;;;;;;5090696;28;20285;-60
2022/03/23 03:38:51;;;;;;;;;;;19.50;96.00;;;;;;5098792;28;19931;-59
2022/03/23 03:41:18;;;;;;;;;;;19.50;96.00;;;;;;5107688;28;19931;-58
2022/03/23 03:43:46;;;;;;;;;;;19.50;96.10;;;;;;5096426;28;19931;-59
2022/03/23 03:46:13;;;;;;;;;;;19.50;96.20;;;;;;5099141;28;19924;-58
2022/03/23 03:48:40;;;;;;;;;;;19.50;96.20;;;;;;5105890;28;19927;-59
2022/03/23 03:51:08;;;;;;;;;;;19.50;96.30;;;;;;5097646;28;20388;-59
2022/03/23 03:53:36;;;;;;;;;;;19.40;96.30;;;;;;5099741;27;19920;-60
2022/03/23 03:56:07;;;;;;;;;;;19.40;96.30;;;;;;5090158;28;19925;-59
2022/03/23 03:58:35;;;;;;;;;;;19.40;96.30;;;;;;5109488;28;19924;-59
2022/03/23 04:01:02;;;;;;;;;;;19.40;96.40;;;;;;5071465;28;19924;-59
2022/03/23 04:03:29;;;;;;;;;;;19.40;96.40;;;;;;5099739;28;19923;-60
2022/03/23 04:05:57;;;;;;;;;;;19.30;96.40;;;;;;5090242;28;20411;-57
2022/03/23 04:08:25;;;;;;;;;;;19.30;96.50;;;;;;5100490;28;19923;-59
2022/03/23 04:10:52;;;;;;;;;;;19.40;96.40;;;;;;5095705;28;20384;-57
2022/03/23 04:13:19;;;;;;;;;;;19.30;96.30;;;;;;5089911;28;19919;-58
2022/03/23 04:15:47;;;;;;;;;;;19.40;96.40;;;;;;5106713;28;19919;-58
2022/03/23 04:18:14;;;;;;;;;;;19.40;96.60;;;;;;5102169;28;19927;-58
2022/03/23 04:20:41;;;;;;;;;;;19.30;96.70;;;;;;5101078;28;20470;-59
2022/03/23 04:23:08;;;;;;;;;;;19.30;96.50;;;;;;5103255;28;20372;-60
2022/03/23 04:25:35;;;;;;;;;;;19.30;96.50;;;;;;5093125;28;19947;-58
2022/03/23 04:28:02;;;;;;;;;;;19.30;96.60;;;;;;5097999;28;19924;-59
2022/03/23 04:30:30;;;;;;;;;;;19.30;96.70;;;;;;5106575;28;19932;-58
2022/03/23 04:32:58;;;;;;;;;;;19.30;96.80;;;;;;5107626;28;19938;-59
2022/03/23 04:35:25;;;;;;;;;;;19.30;96.80;;;;;;5094104;28;20308;-57
2022/03/23 04:37:53;;;;;;;;;;;19.40;96.70;;;;;;5101477;28;19931;-60
2022/03/23 04:40:22;;;;;;;;;;;19.40;96.80;;;;;;5098680;28;19928;-60
2022/03/23 04:42:49;;;;;;;;;;;19.30;96.80;;;;;;5101939;28;19946;-58
2022/03/23 04:45:17;;;;;;;;;;;19.30;96.80;;;;;;5099171;28;19920;-60
2022/03/23 04:47:44;;;;;;;;;;;19.30;96.80;;;;;;5093701;28;20312;-56
2022/03/23 04:50:12;;;;;;;;;;;19.30;96.80;;;;;;5099037;28;20019;-57
2022/03/23 04:52:41;;;;;;;;;;;19.40;96.80;;;;;;5106609;28;19930;-57
2022/03/23 04:55:09;;;;;;;;;;;19.50;96.60;;;;;;5106685;28;19926;-56
2022/03/23 04:57:37;;;;;;;;;;;19.60;96.40;;;;;;5084825;28;20300;-58
2022/03/23 05:00:10;;;;;;;;;;;19.70;96.20;;;;;;5087297;28;19931;-57
2022/03/23 05:02:43;;;;;;;;;;;20.00;95.80;;;;;;5097518;28;19931;-58
2022/03/23 05:05:14;;;;;;;;;;;20.10;95.60;;;;;;5082830;28;19928;-58
2022/03/23 05:07:41;;;;;;;;;;;20.20;95.40;;;;;;5099054;28;19923;-58
2022/03/23 05:10:09;;;;;;;;;;;20.40;95.30;;;;;;5101376;28;20304;-60
2022/03/23 05:12:37;;;;;;;;;;;20.40;95.20;;;;;;5100646;28;19931;-61
2022/03/23 05:15:06;;;;;;;;;;;20.60;95.00;;;;;;5104356;28;19923;-62
2022/03/23 05:17:33;;;;;;;;;;;20.70;94.90;;;;;;5105292;28;19923;-60
2022/03/23 05:20:01;;;;;;;;;;;20.80;94.70;;;;;;5102616;28;20264;-60
2022/03/23 05:22:28;;;;;;;;;;;20.90;94.60;;;;;;5092513;28;19920;-60
2022/03/23 05:24:56;;;;;;;;;;;21.20;94.50;;;;;;5104713;28;20290;-59
2022/03/23 05:27:23;;;;;;;;;;;21.40;94.30;;;;;;5098812;28;19924;-59
2022/03/23 05:29:50;;;;;;;;;;;21.50;94.10;;;;;;5095834;28;19924;-60
2022/03/23 05:32:18;;;;;;;;;;;21.60;93.90;;;;;;5095628;28;19930;-59
2022/03/23 05:34:45;;;;;;;;;;;21.90;93.70;;;;;;5094476;28;19928;-59
2022/03/23 05:37:13;;;;;;;;;;;22.00;93.70;;;;;;5102202;28;20654;-61
2022/03/23 05:39:40;;;;;;;;;;;22.00;93.60;;;;;;5096658;28;20106;-60
2022/03/23 05:42:08;;;;;;;;;;;22.10;93.50;;;;;;5095792;28;20018;-59
2022/03/23 05:44:35;;;;;;;;;;;22.20;93.50;;;;;;5101570;28;20280;-60
2022/03/23 05:47:03;;;;;;;;;;;22.30;93.50;;;;;;5101897;28;19934;-59
2022/03/23 05:49:30;;;;;;;;;;;22.30;93.50;;;;;;5106025;28;19928;-60
2022/03/23 05:51:58;;;;;;;;;;;22.40;93.40;;;;;;5100503;28;19931;-60
2022/03/23 05:54:25;;;;;;;;;;;22.40;93.50;;;;;;5081723;28;20280;-59
2022/03/23 05:56:53;;;;;;;;;;;22.40;93.40;;;;;;5105804;28;19942;-61
2022/03/23 05:59:20;;;;;;;;;;;22.40;93.50;;;;;;5121517;27;19955;-60
2022/03/23 06:01:47;;;;;;;;;;;22.40;93.50;;;;;;5093472;28;19923;-59
2022/03/23 06:04:14;;;;;;;;;;;22.40;93.60;;;;;;5104318;28;19931;-57
2022/03/23 06:06:42;;;;;;;;;;;22.30;93.60;;;;;;5104161;28;19928;-60
2022/03/23 06:09:10;;;;;;;;;;;22.30;93.70;;;;;;5098064;28;19924;-60
2022/03/23 06:11:38;;;;;;;;;;;22.20;93.70;;;;;;5098198;28;20599;-61
2022/03/23 06:14:05;;;;;;;;;;;22.20;93.80;;;;;;5102295;28;20384;-61
2022/03/23 06:16:33;;;;;;;;;;;22.20;93.90;;;;;;5106087;28;19923;-61
2022/03/23 06:19:00;;;;;;;;;;;22.20;94.00;;;;;;5104493;28;20381;-60
2022/03/23 06:21:28;;;;;;;;;;;22.10;94.00;;;;;;5106785;28;19923;-60
2022/03/23 06:23:55;;;;;;;;;;;22.10;94.00;;;;;;5100052;28;19924;-59
2022/03/23 06:26:23;;;;;;;;;;;22.10;94.10;;;;;;5093765;28;19935;-59
2022/03/23 06:28:50;;;;;;;;;;;22.00;94.10;;;;;;5104231;28;19946;-60
2022/03/23 06:31:17;;;;;;;;;;;21.90;94.10;;;;;;5105255;28;19931;-60
2022/03/23 06:33:45;;;;;;;;;;;21.90;94.30;;;;;;5105571;28;20653;-57
2022/03/23 06:36:12;;;;;;;;;;;21.90;94.40;;;;;;5105332;28;19931;-56
2022/03/23 06:38:39;;;;;;;;;;;21.90;94.60;;;;;;5101511;28;20304;-57
2022/03/23 06:41:07;;;;;;;;;;;21.80;94.60;;;;;;5103832;28;19942;-58
2022/03/23 06:43:38;;;;;;;;;;;21.70;94.20;;;;;;5096609;28;19923;-55
2022/03/23 06:46:05;;;;;;;;;;;21.60;92.90;;;;;;5097167;28;19919;-56
2022/03/23 06:48:32;;;;;;;;;;;21.50;92.30;;;;;;5099404;28;19928;-57
2022/03/23 06:50:59;;;;;;;;;;;21.50;92.10;;;;;;5087249;28;19943;-58
2022/03/23 06:53:28;;;;;;;;;;;21.50;92.30;;;;;;5100387;28;20014;-57
2022/03/23 06:55:55;;;;;;;;;;;21.50;92.50;;;;;;5104049;28;19931;-57
2022/03/23 06:58:22;;;;;;;;;;;21.50;92.70;;;;;;5084856;28;19928;-54
2022/03/23 07:00:49;;;;;;;;;;;21.40;92.80;;;;;;5089141;28;19924;-57
2022/03/23 07:03:17;;;;;;;;;;;21.40;93.00;;;;;;5087449;28;19920;-55
2022/03/23 07:05:44;;;;;;;;;;;21.40;93.20;;;;;;5098570;28;19946;-57
2022/03/23 07:10:57;;;;;;;;;;;21.30;91.40;;;;;;5093935;28;19935;-55
2022/03/23 07:13:24;;;;;;;;;;;21.20;90.30;;;;;;5089275;28;20320;-57
2022/03/23 07:15:51;;;;;;;;;;;21.10;88.60;;;;;;5098019;28;20320;-54
2022/03/23 07:18:24;;;;;;;;;;;21.10;86.90;;;;;;5098813;28;19926;-54
2022/03/23 07:20:52;;;;;;;;;;;21.00;86.20;;;;;;5086219;28;19931;-57
2022/03/23 07:23:20;;;;;;;;;;;21.00;84.70;;;;;;5103261;28;19927;-57
2022/03/23 07:25:47;;;;;;;;;;;20.90;84.80;;;;;;5091503;28;19924;-54
2022/03/23 07:28:14;;;;;;;;;;;20.90;83.70;;;;;;5097832;28;19920;-56
2022/03/23 07:30:42;;;;;;;;;;;21.00;82.40;;;;;;5082764;28;20766;-59
2022/03/23 07:33:10;;;;;;;;;;;21.10;81.20;;;;;;5081265;28;19924;-54
2022/03/23 07:35:38;;;;;;;;;;;21.20;80.30;;;;;;5101259;28;19923;-55
2022/03/23 07:38:05;;;;;;;;;;;21.30;80.10;;;;;;5078374;28;20490;-57
2022/03/23 07:40:32;;;;;;;;;;;21.40;78.80;;;;;;5089408;28;19920;-55
2022/03/23 07:42:59;;;;;;;;;;;21.60;78.50;;;;;;5093865;28;19924;-57
2022/03/23 07:45:27;;;;;;;;;;;21.60;77.80;;;;;;5084284;28;19931;-60
2022/03/23 07:47:54;;;;;;;;;;;21.70;77.40;;;;;;5099412;28;19931;-60
2022/03/23 07:50:22;;;;;;;;;;;21.70;78.20;;;;;;5100433;28;20718;-60
2022/03/23 07:52:49;;;;;;;;;;;21.80;77.90;;;;;;5107596;28;19931;-60
2022/03/23 07:55:17;;;;;;;;;;;21.90;76.80;;;;;;5109661;28;19951;-60
2022/03/23 07:57:45;;;;;;;;;;;21.90;77.50;;;;;;5084024;28;19943;-60
2022/03/23 08:00:15;;;;;;;;;;;22.00;77.10;;;;;;5108073;28;19927;-59
2022/03/23 08:02:42;;;;;;;;;;;22.00;77.50;;;;;;5100014;28;19948;-63
2022/03/23 08:05:10;;;;;;;;;;;21.90;77.50;;;;;;5091355;28;20466;-59
2022/03/23 08:07:37;;;;;;;;;;;21.90;77.30;;;;;;5103372;28;19923;-58
2022/03/23 08:10:04;;;;;;;;;;;21.90;77.60;;;;;;5086801;28;19924;-63
2022/03/23 08:12:32;;;;;;;;;;;21.80;77.00;;;;;;5086304;28;19923;-64
2022/03/23 08:14:59;;;;;;;;;;;21.80;77.10;;;;;;5094852;28;19935;-61
2022/03/23 08:17:26;;;;;;;;;;;21.80;77.50;;;;;;5093765;28;19920;-64
2022/03/23 08:22:39;;;;;;;;;;;21.70;77.30;;;;;;5075078;28;19924;-64
2022/03/23 08:25:06;;;;;;;;;;;21.70;77.00;;;;;;5097429;28;19924;-62
2022/03/23 08:27:33;;;;;;;;;;;21.70;76.60;;;;;;5097229;28;20472;-60
2022/03/23 08:30:00;;;;;;;;;;;21.70;76.60;;;;;;5097386;28;19947;-62
2022/03/23 08:32:27;;;;;;;;;;;21.60;76.10;;;;;;5098535;28;19923;-63
2022/03/23 08:34:55;;;;;;;;;;;21.60;75.60;;;;;;5095342;28;19938;-59
2022/03/23 08:37:22;;;;;;;;;;;21.60;75.80;;;;;;5096633;28;20355;-58
2022/03/23 08:39:49;;;;;;;;;;;21.50;76.00;;;;;;5098940;28;19927;-60
2022/03/23 08:42:17;;;;;;;;;;;21.50;76.10;;;;;;5081985;28;20021;-60
2022/03/23 08:44:45;;;;;;;;;;;21.40;76.40;;;;;;5098859;28;19920;-61
2022/03/23 08:47:12;;;;;;;;;;;21.40;76.30;;;;;;5098092;28;19935;-60
2022/03/23 08:49:39;;;;;;;;;;;21.40;76.30;;;;;;5100068;28;19927;-62
2022/03/23 08:52:06;;;;;;;;;;;21.40;76.30;;;;;;5107243;28;19924;-60
2022/03/23 08:54:34;;;;;;;;;;;21.40;76.40;;;;;;5106303;28;19930;-64
2022/03/23 08:57:01;;;;;;;;;;;21.30;76.40;;;;;;5104979;28;19924;-63
2022/03/23 08:59:30;;;;;;;;;;;21.20;76.20;;;;;;5102107;28;19925;-62
2022/03/23 09:01:57;;;;;;;;;;;21.20;76.20;;;;;;5096990;28;19924;-58
2022/03/23 09:04:24;;;;;;;;;;;21.10;76.20;;;;;;5100737;28;19927;-63
2022/03/23 09:06:52;;;;;;;;;;;21.10;76.30;;;;;;5094325;28;19942;-63
2022/03/23 09:09:19;;;;;;;;;;;21.10;76.80;;;;;;5094310;28;19928;-60
2022/03/23 09:11:46;;;;;;;;;;;21.10;76.80;;;;;;5078841;28;19923;-61
2022/03/23 09:14:14;;;;;;;;;;;21.10;76.70;;;;;;5093386;28;20419;-60
2022/03/23 09:16:41;;;;;;;;;;;21.10;76.70;;;;;;5074726;28;19927;-60
2022/03/23 09:19:10;;;;;;;;;;;21.10;76.90;;;;;;5096545;28;19919;-61
2022/03/23 09:21:38;;;;;;;;;;;21.10;77.00;;;;;;5093406;28;19923;-58
2022/03/23 09:24:06;;;;;;;;;;;21.10;77.20;;;;;;5096853;28;19931;-61
2022/03/23 09:26:33;;;;;;;;;;;21.10;77.20;;;;;;5093099;28;19939;-63
2022/03/23 09:29:00;;;;;;;;;;;21.10;77.20;;;;;;5100786;28;19924;-61
2022/03/23 09:31:29;;;;;;;;;;;21.00;77.20;;;;;;5067787;28;19927;-60
2022/03/23 09:33:56;;;;;;;;;;;21.00;77.10;;;;;;5099167;28;19955;-60
2022/03/23 09:37:47;;;;;;;;;;;21.00;76.90;;;;;;5095377;28;19928;-59
2022/03/23 09:39:11;;;;;;;;;;;21.00;77.00;;;;;;5097139;28;20687;-59
2022/03/23 09:41:38;;;;;;;;;;;21.00;77.00;;;;;;5099836;28;19946;-61
2022/03/23 09:44:05;;;;;;;;;;;21.00;77.30;;;;;;5099783;28;19923;-59
2022/03/23 09:46:33;;;;;;;;;;;21.00;77.30;;;;;;5093700;28;19931;-61
2022/03/23 09:49:01;;;;;;;;;;;20.90;77.30;;;;;;5094489;28;19924;-59
2022/03/23 09:51:30;;;;;;;;;;;21.00;77.70;;;;;;5096784;28;19931;-59
2022/03/23 09:53:58;;;;;;;;;;;20.90;77.70;;;;;;5093415;28;19924;-57
2022/03/23 09:56:25;;;;;;;;;;;20.80;77.50;;;;;;5085059;28;19930;-60
2022/03/23 09:58:53;;;;;;;;;;;20.80;76.90;;;;;;5090569;28;19939;-60
2022/03/23 10:01:33;;;;;;;;;;;20.70;77.20;;;;;;5062087;28;19942;-59
2022/03/23 10:04:14;;;;;;;;;;;20.70;77.60;;;;;;5087713;28;19943;-58
2022/03/23 10:07:00;;;;;;;;;;;20.70;78.10;;;;;;5092011;28;19920;-59
2022/03/23 10:09:40;;;;;;;;;;;20.80;78.80;;;;;;5087609;28;19924;-60
2022/03/23 10:12:26;;;;;;;;;;;20.80;80.00;;;;;;5090817;28;19924;-60
2022/03/23 10:15:11;;;;;;;;;;;20.80;81.10;;;;;;5092266;28;20392;-59
2022/03/23 10:17:42;;;;;;;;;;;20.80;81.90;;;;;;5100582;28;19920;-62
2022/03/23 10:20:13;;;;;;;;;;;20.80;83.10;;;;;;5110176;28;19930;-63
2022/03/23 10:22:44;;;;;;;;;;;20.80;83.90;;;;;;5094386;28;19927;-60
2022/03/23 10:25:12;;;;;;;;;;;20.80;84.70;;;;;;5081813;28;19936;-58
2022/03/23 10:27:39;;;;;;;;;;;20.80;85.20;;;;;;5095052;28;19923;-58
2022/03/23 10:30:06;;;;;;;;;;;20.80;85.70;;;;;;5094315;28;19924;-59
2022/03/23 10:32:34;;;;;;;;;;;20.80;86.30;;;;;;5096217;28;19930;-61
2022/03/23 10:35:02;;;;;;;;;;;20.80;87.60;;;;;;5101731;28;20464;-59
2022/03/23 10:37:30;;;;;;;;;;;20.70;86.70;;;;;;5091150;28;20404;-60
2022/03/23 10:39:58;;;;;;;;;;;20.70;85.80;;;;;;5099196;28;19923;-62
2022/03/23 10:42:27;;;;;;;;;;;20.60;84.10;;;;;;5092403;28;19926;-61
2022/03/23 10:45:08;;;;;;;;;;;20.40;81.90;;;;;;5101095;28;19924;-62
2022/03/23 10:47:37;;;;;;;;;;;20.30;81.40;;;;;;5098177;28;19924;-62
2022/03/23 10:50:07;;;;;;;;;;;20.20;78.70;;;;;;5088715;28;19924;-58
2022/03/23 10:52:35;;;;;;;;;;;20.20;78.60;;;;;;5098769;28;19924;-58
2022/03/23 10:55:05;;;;;;;;;;;20.20;76.40;;;;;;5092595;28;20252;-60
2022/03/23 10:57:44;;;;;;;;;;;20.20;75.60;;;;;;5096884;28;19923;-60
2022/03/23 11:00:17;;;;;;;;;;;20.10;74.90;;;;;;5088818;28;19920;-59
2022/03/23 11:02:45;;;;;;;;;;;20.10;75.50;;;;;;5089645;28;19919;-61
2022/03/23 11:05:32;;;;;;;;;;;20.10;74.70;;;;;;5090599;28;19932;-61
2022/03/23 11:08:18;;;;;;;;;;;20.10;74.10;;;;;;5086499;28;20320;-60
2022/03/23 11:16:36;;;;;;;;;;;20.10;73.30;;;;;;5091383;28;19943;-56
2022/03/23 11:19:09;;;;;;;;;;;20.10;72.60;;;;;;5095399;28;20322;-56
2022/03/23 11:21:56;;;;;;;;;;;20.00;72.40;;;;;;5094895;28;20484;-56
2022/03/23 11:24:23;;;;;;;;;;;20.00;69.50;;;;;;5099293;28;20383;-58
2022/03/23 11:26:51;;;;;;;;;;;19.80;71.20;;;;;;5100747;28;19919;-62
2022/03/23 11:29:18;;;;;;;;;;;19.80;70.00;;;;;;5092647;28;19924;-55
2022/03/23 11:31:46;;;;;;;;;;;19.70;69.90;;;;;;5090469;28;19924;-60
2022/03/23 11:34:18;;;;;;;;;;;19.70;72.00;;;;;;5097015;28;19954;-60
2022/03/23 11:36:47;;;;;;;;;;;19.70;72.70;;;;;;5091851;28;20007;-57
2022/03/23 11:39:14;;;;;;;;;;;19.70;72.50;;;;;;5090294;28;19920;-60
2022/03/23 11:41:43;;;;;;;;;;;19.70;72.80;;;;;;5089974;28;20137;-57
2022/03/23 11:44:18;;;;;;;;;;;19.80;73.80;;;;;;5093696;28;19920;-56
2022/03/23 11:46:45;;;;;;;;;;;19.80;74.20;;;;;;5108172;28;19930;-55
2022/03/23 11:49:15;;;;;;;;;;;19.90;74.10;;;;;;5092754;28;19935;-58
2022/03/23 11:52:01;;;;;;;;;;;19.80;73.30;;;;;;5084824;28;19935;-58
2022/03/23 11:57:45;;;;;;;;;;;19.70;71.50;;;;;;5094802;28;19934;-50
2022/03/23 12:00:19;;;;;;;;;;;19.70;71.30;;;;;;5105367;28;19928;-54
2022/03/23 12:02:56;;;;;;;;;;;19.70;69.40;;;;;;5099710;28;19935;-56
2022/03/23 12:05:35;;;;;;;;;;;19.80;70.90;;;;;;5089991;28;19928;-52
2022/03/23 12:08:05;;;;;;;;;;;19.70;69.80;;;;;;5091967;28;19927;-52
2022/03/23 12:10:41;;;;;;;;;;;19.70;70.40;;;;;;5093422;28;19924;-54
2022/03/23 12:13:13;;;;;;;;;;;19.70;70.50;;;;;;5097502;28;19920;-53
2022/03/23 12:15:59;;;;;;;;;;;19.70;69.90;;;;;;5095384;28;20424;-53
2022/03/23 12:18:40;;;;;;;;;;;19.70;70.20;;;;;;5077027;28;19919;-56
2022/03/23 12:21:10;;;;;;;;;;;19.70;70.00;;;;;;5095122;28;19997;-57
2022/03/23 12:23:48;;;;;;;;;;;19.60;69.30;;;;;;5088710;28;20293;-55
2022/03/23 12:26:21;;;;;;;;;;;19.60;69.50;;;;;;5097031;28;20674;-53
2022/03/23 12:28:54;;;;;;;;;;;19.60;70.00;;;;;;5097412;28;20340;-57
2022/03/23 12:31:21;;;;;;;;;;;19.50;70.20;;;;;;5104924;28;19924;-57
2022/03/23 12:33:58;;;;;;;;;;;19.50;70.50;;;;;;5124910;28;19923;-58
2022/03/23 12:36:56;;;;;;;;;;;19.50;70.40;;;;;;5117521;28;20396;-56
2022/03/23 12:39:20;;;;;;;;;;;19.40;70.60;;;;;;5106358;28;19924;-58
2022/03/23 12:41:47;;;;;;;;;;;19.40;70.70;;;;;;5106950;28;20375;-58
2022/03/23 12:44:14;;;;;;;;;;;19.40;70.20;;;;;;5103804;28;20423;-54
2022/03/23 12:46:45;;;;;;;;;;;19.40;70.50;;;;;;5101343;28;19927;-53
2022/03/23 12:57:53;;;;;;;;;;;19.40;72.80;;;;;;5098396;28;20304;-56
2022/03/23 13:00:27;;;;;;;;;;;19.40;73.20;;;;;;5098043;28;20379;-53
2022/03/23 13:03:06;;;;;;;;;;;19.40;70.30;;;;;;5101152;28;19927;-55
2022/03/23 13:05:35;;;;;;;;;;;19.50;69.90;;;;;;5105542;28;19928;-55
2022/03/23 13:08:21;;;;;;;;;;;19.50;71.30;;;;;;5097692;28;19947;-56
2022/03/23 13:10:58;;;;;;;;;;;19.50;71.00;;;;;;5105940;28;19930;-53
2022/03/23 13:13:26;;;;;;;;;;;19.60;70.10;;;;;;5100578;28;19928;-56
2022/03/23 13:15:53;;;;;;;;;;;19.60;74.00;;;;;;5081453;28;19931;-53
2022/03/23 13:18:24;;;;;;;;;;;19.70;77.10;;;;;;5093753;28;19924;-55
2022/03/23 13:20:52;;;;;;;;;;;19.80;77.80;;;;;;5100617;28;19930;-55
2022/03/23 13:23:19;;;;;;;;;;;19.80;75.20;;;;;;5088589;28;19931;-57
2022/03/23 13:26:02;;;;;;;;;;;19.80;72.90;;;;;;5090788;28;19920;-55
2022/03/23 13:28:29;;;;;;;;;;;19.90;73.40;;;;;;5097682;28;19927;-56
2022/03/23 13:30:57;;;;;;;;;;;19.90;74.50;;;;;;5090580;28;19924;-50
2022/03/23 13:33:26;;;;;;;;;;;19.90;70.50;;;;;;5101354;28;20355;-57
2022/03/23 13:35:54;;;;;;;;;;;19.90;72.30;;;;;;5099551;28;19928;-52
2022/03/23 13:38:21;;;;;;;;;;;20.00;73.40;;;;;;5097693;28;19924;-54
2022/03/23 13:43:34;;;;;;;;;;;20.10;74.90;;;;;;5102861;28;19928;-55
2022/03/23 13:46:02;;;;;;;;;;;20.10;73.80;;;;;;5098120;28;19927;-57
2022/03/23 13:48:30;;;;;;;;;;;20.10;75.40;;;;;;5104210;28;19927;-57
2022/03/23 13:50:59;;;;;;;;;;;20.10;70.50;;;;;;5096174;28;19924;-56
2022/03/23 13:53:26;;;;;;;;;;;20.10;67.90;;;;;;5111056;28;19947;-58
2022/03/23 13:55:55;;;;;;;;;;;20.00;68.30;;;;;;5111766;28;19928;-53
2022/03/23 13:58:26;;;;;;;;;;;20.00;68.60;;;;;;5096752;28;19923;-57
2022/03/23 14:00:56;;;;;;;;;;;20.00;68.80;;;;;;5105924;28;19935;-53
2022/03/23 14:03:32;;;;;;;;;;;20.10;69.00;;;;;;5097673;28;19928;-57
2022/03/23 14:06:15;;;;;;;;;;;20.10;70.20;;;;;;5097645;28;19924;-58
2022/03/23 14:08:54;;;;;;;;;;;20.20;69.80;;;;;;5104466;28;19924;-59
2022/03/23 14:11:47;;;;;;;;;;;20.20;67.00;;;;;;5093610;28;19935;-60
2022/03/23 14:14:17;;;;;;;;;;;20.20;68.00;;;;;;5084781;28;19935;-57
2022/03/23 14:17:01;;;;;;;;;;;20.20;68.10;;;;;;5096830;28;19923;-58
2022/03/23 14:19:30;;;;;;;;;;;20.30;67.10;;;;;;5097862;28;19927;-60
2022/03/23 14:21:59;;;;;;;;;;;20.30;67.60;;;;;;5086829;28;20304;-55
2022/03/23 14:24:31;;;;;;;;;;;20.40;68.40;;;;;;5075869;28;19920;-58
2022/03/23 14:27:17;;;;;;;;;;;20.40;69.20;;;;;;5106074;28;19958;-61
2022/03/23 14:30:02;;;;;;;;;;;20.50;70.20;;;;;;5103735;28;19928;-58
2022/03/23 14:32:31;;;;;;;;;;;20.50;71.20;;;;;;5088828;28;19919;-61
2022/03/23 14:34:58;;;;;;;;;;;20.50;72.20;;;;;;5090052;28;19943;-58
2022/03/23 14:37:37;;;;;;;;;;;20.50;73.20;;;;;;5096414;28;19923;-60
2022/03/23 14:40:17;;;;;;;;;;;20.30;73.60;;;;;;5108552;28;19920;-56
2022/03/23 14:42:44;;;;;;;;;;;20.30;74.00;;;;;;5102521;28;20391;-56
2022/03/23 14:45:33;;;;;;;;;;;20.30;74.30;;;;;;5087934;28;19927;-53
2022/03/23 14:48:18;;;;;;;;;;;20.30;74.90;;;;;;5095053;28;19928;-60
2022/03/23 14:50:49;;;;;;;;;;;20.20;75.10;;;;;;5100346;28;19926;-58
2022/03/23 14:53:17;;;;;;;;;;;20.20;75.60;;;;;;5087359;28;20315;-59
2022/03/23 14:55:45;;;;;;;;;;;20.20;75.80;;;;;;5087039;28;19923;-59
2022/03/23 14:58:33;;;;;;;;;;;20.20;76.10;;;;;;5087838;28;19920;-60
2022/03/23 15:01:05;;;;;;;;;;;20.20;76.00;;;;;;5098027;28;20307;-59
2022/03/23 15:03:34;;;;;;;;;;;20.30;76.10;;;;;;5090184;28;19924;-56